Time;durP1;ratioP1;P1;durP2;ratioP2;P2;SDS_P1;SDS_P2;PMS_P1;PMS_P2;Temp;Humidity;BMP_temperature;BMP_pressure;BME280_temperature;BME280_humidity;BME280_pressure;Samples;Min_cycle;Max_cycle;Signal;HPM_P1;HPM_P2
2024/03/13 00:00:26;;;;;;;134.63;127.72;;;;;;;;;;5118484;27;20051;-67
2024/03/13 00:02:53;;;;;;;126.82;120.47;;;;;;;;;;5113153;27;20164;-67
2024/03/13 00:05:19;;;;;;;130.38;123.70;;;;;;;;;;5114985;27;20036;-67
2024/03/13 00:07:45;;;;;;;131.10;124.38;;;;;;;;;;5114710;27;20032;-66
2024/03/13 00:10:11;;;;;;;129.13;122.55;;;;;;;;;;5113964;27;20043;-66
2024/03/13 00:12:36;;;;;;;134.75;127.93;;;;;;;;;;5117282;27;20067;-66
2024/03/13 00:15:05;;;;;;;131.30;124.75;;;;;;;;;;5115809;27;21392;-66
2024/03/13 00:17:31;;;;;;;126.25;119.72;;;;;;;;;;5098470;27;20480;-65
2024/03/13 00:19:57;;;;;;;133.00;126.25;;;;;;;;;;5111586;27;20042;-65
2024/03/13 00:22:24;;;;;;;129.48;122.95;;;;;;;;;;5117677;27;20034;-64
2024/03/13 00:24:51;;;;;;;137.77;130.27;;;;;;;;;;5113842;27;20059;-66
2024/03/13 00:27:17;;;;;;;137.75;130.82;;;;;;;;;;5110837;27;20395;-65
2024/03/13 00:29:44;;;;;;;131.63;124.97;;;;;;;;;;5113494;27;20031;-64
2024/03/13 00:32:15;;;;;;;136.13;129.30;;;;;;;;;;5115050;27;20165;-65
2024/03/13 00:34:43;;;;;;;152.20;144.30;;;;;;;;;;5111296;27;20054;-65
2024/03/13 00:37:09;;;;;;;144.40;137.18;;;;;;;;;;5092934;27;20334;-66
2024/03/13 00:39:34;;;;;;;146.18;138.82;;;;;;;;;;5109746;27;20645;-65
2024/03/13 00:42:02;;;;;;;146.88;139.57;;;;;;;;;;5095190;27;20114;-66
2024/03/13 00:44:28;;;;;;;142.10;134.82;;;;;;;;;;5114557;27;20566;-65
2024/03/13 00:46:54;;;;;;;140.75;133.73;;;;;;;;;;5116915;27;20038;-65
2024/03/13 00:49:19;;;;;;;135.50;128.68;;;;;;;;;;5097033;27;20356;-65
2024/03/13 00:51:45;;;;;;;145.68;138.20;;;;;;;;;;5114546;27;20024;-65
2024/03/13 00:54:11;;;;;;;141.57;134.40;;;;;;;;;;5114083;27;20088;-66
2024/03/13 00:56:36;;;;;;;143.75;136.63;;;;;;;;;;5095324;27;20041;-66
2024/03/13 00:59:05;;;;;;;144.85;137.48;;;;;;;;;;5116464;27;20034;-65
2024/03/13 01:01:30;;;;;;;126.68;120.22;;;;;;;;;;5113725;27;20100;-65
2024/03/13 01:03:59;;;;;;;139.73;132.70;;;;;;;;;;5113259;27;20702;-66
2024/03/13 01:06:28;;;;;;;142.52;135.48;;;;;;;;;;5116054;27;20024;-65
2024/03/13 01:08:57;;;;;;;144.32;137.20;;;;;;;;;;5113989;27;20035;-66
2024/03/13 01:11:24;;;;;;;137.80;130.80;;;;;;;;;;5112547;27;20618;-66
2024/03/13 01:13:50;;;;;;;136.18;129.38;;;;;;;;;;5097743;27;20031;-65
2024/03/13 01:16:16;;;;;;;134.10;127.45;;;;;;;;;;5111223;27;20050;-65
2024/03/13 01:18:42;;;;;;;128.75;122.32;;;;;;;;;;5113836;27;20039;-65
2024/03/13 01:21:08;;;;;;;133.88;127.22;;;;;;;;;;5116690;27;20039;-65
2024/03/13 01:23:33;;;;;;;134.20;127.50;;;;;;;;;;5116003;27;20051;-65
2024/03/13 01:26:04;;;;;;;142.18;135.07;;;;;;;;;;5111637;27;20468;-64
2024/03/13 01:28:30;;;;;;;132.18;125.55;;;;;;;;;;5114460;27;20046;-65
2024/03/13 01:30:55;;;;;;;130.40;123.88;;;;;;;;;;5114060;27;20027;-64
2024/03/13 01:33:21;;;;;;;137.50;130.70;;;;;;;;;;5093892;28;20027;-65
2024/03/13 01:35:46;;;;;;;142.02;135.00;;;;;;;;;;5113216;27;20078;-66
2024/03/13 01:38:12;;;;;;;145.65;138.45;;;;;;;;;;5113851;27;20035;-64
2024/03/13 01:57:31;;;;;;;128.68;122.20;;;;;;;;;;5112861;27;20117;-65
2024/03/13 02:02:44;;;;;;;116.28;110.50;;;;;;;;;;5111624;27;20173;-65
2024/03/13 02:05:09;;;;;;;126.65;120.28;;;;;;;;;;5113193;27;20508;-65
2024/03/13 02:07:35;;;;;;;133.55;126.95;;;;;;;;;;5113860;27;20035;-65
2024/03/13 02:10:04;;;;;;;118.80;112.60;;;;;;;;;;5115781;27;20042;-65
2024/03/13 02:12:29;;;;;;;131.70;125.15;;;;;;;;;;5097157;27;20672;-65
2024/03/13 02:14:55;;;;;;;121.65;115.63;;;;;;;;;;5113866;27;20031;-65
2024/03/13 02:17:21;;;;;;;120.90;114.80;;;;;;;;;;5114834;27;20056;-64
2024/03/13 02:19:47;;;;;;;123.03;116.78;;;;;;;;;;5111881;27;20050;-64
2024/03/13 02:22:14;;;;;;;121.47;115.35;;;;;;;;;;5113552;27;20035;-64
2024/03/13 02:24:40;;;;;;;118.10;112.25;;;;;;;;;;5111606;27;20066;-65
2024/03/13 02:27:12;;;;;;;113.55;107.93;;;;;;;;;;5115546;27;20112;-66
2024/03/13 02:29:42;;;;;;;103.68;98.45;;;;;;;;;;5112269;27;20152;-66
2024/03/13 02:32:08;;;;;;;105.15;99.88;;;;;;;;;;5095408;28;20038;-65
2024/03/13 02:34:34;;;;;;;111.38;105.85;;;;;;;;;;5111744;27;20023;-65
2024/03/13 02:37:00;;;;;;;111.03;105.50;;;;;;;;;;5110921;27;20034;-65
2024/03/13 02:39:26;;;;;;;103.70;98.55;;;;;;;;;;5110011;28;20195;-64
2024/03/13 02:41:52;;;;;;;104.45;99.28;;;;;;;;;;5111880;28;20062;-65
2024/03/13 02:44:17;;;;;;;113.18;107.57;;;;;;;;;;5109375;28;20039;-65
2024/03/13 02:46:45;;;;;;;109.97;104.53;;;;;;;;;;5114008;28;20058;-64
2024/03/13 02:49:11;;;;;;;112.13;106.43;;;;;;;;;;5112497;28;20039;-65
2024/03/13 02:51:36;;;;;;;106.13;100.85;;;;;;;;;;5116033;27;20023;-65
2024/03/13 02:54:04;;;;;;;93.85;89.18;;;;;;;;;;5119553;27;20016;-65
2024/03/13 02:56:29;;;;;;;93.72;89.00;;;;;;;;;;5117074;27;20032;-65
2024/03/13 02:58:55;;;;;;;101.68;96.60;;;;;;;;;;5118387;27;20404;-64
2024/03/13 03:01:20;;;;;;;103.85;98.65;;;;;;;;;;5119377;27;20442;-65
2024/03/13 03:03:46;;;;;;;100.85;95.78;;;;;;;;;;5116928;27;20042;-65
2024/03/13 03:06:11;;;;;;;112.07;106.47;;;;;;;;;;5117205;27;20026;-64
2024/03/13 03:08:37;;;;;;;119.97;113.97;;;;;;;;;;5097621;27;20058;-65
2024/03/13 03:11:03;;;;;;;114.45;108.72;;;;;;;;;;5116195;27;20023;-64
2024/03/13 03:13:34;;;;;;;107.53;102.18;;;;;;;;;;5114470;27;20122;-65
2024/03/13 03:16:00;;;;;;;112.55;106.97;;;;;;;;;;5115845;27;20027;-64
2024/03/13 03:18:26;;;;;;;124.07;117.85;;;;;;;;;;5115216;27;20050;-65
2024/03/13 03:20:52;;;;;;;119.30;113.32;;;;;;;;;;5115914;27;20567;-64
2024/03/13 03:23:17;;;;;;;130.15;123.68;;;;;;;;;;5116265;27;20047;-65
2024/03/13 03:25:42;;;;;;;125.72;119.40;;;;;;;;;;5115414;27;20035;-64
2024/03/13 03:28:11;;;;;;;123.35;117.07;;;;;;;;;;5115488;27;20390;-65
2024/03/13 03:30:41;;;;;;;122.63;116.45;;;;;;;;;;5098417;28;20039;-65
2024/03/13 03:33:06;;;;;;;123.63;117.45;;;;;;;;;;5120019;27;20035;-65
2024/03/13 03:35:32;;;;;;;120.88;114.88;;;;;;;;;;5117667;27;20101;-65
2024/03/13 03:37:58;;;;;;;127.32;120.95;;;;;;;;;;5116931;27;20066;-64
2024/03/13 03:40:23;;;;;;;118.13;112.18;;;;;;;;;;5082523;27;20110;-65
2024/03/13 03:42:50;;;;;;;116.45;110.70;;;;;;;;;;5118534;27;20109;-64
2024/03/13 03:45:16;;;;;;;121.88;115.85;;;;;;;;;;5119715;27;20031;-64
2024/03/13 03:47:42;;;;;;;119.13;113.18;;;;;;;;;;5116557;27;20400;-64
2024/03/13 03:50:07;;;;;;;124.93;118.75;;;;;;;;;;5114732;27;20035;-64
2024/03/13 03:52:34;;;;;;;117.22;111.38;;;;;;;;;;5118044;27;20408;-64
2024/03/13 03:54:59;;;;;;;120.55;114.55;;;;;;;;;;5114246;27;20549;-64
2024/03/13 03:57:25;;;;;;;124.68;118.47;;;;;;;;;;5113454;27;20039;-64
2024/03/13 03:59:50;;;;;;;119.68;113.68;;;;;;;;;;5117147;27;20031;-64
2024/03/13 04:02:16;;;;;;;132.80;126.15;;;;;;;;;;5114963;27;20054;-64
2024/03/13 04:04:43;;;;;;;128.00;121.60;;;;;;;;;;5115149;27;20027;-64
2024/03/13 04:07:11;;;;;;;131.93;125.32;;;;;;;;;;5100224;27;20058;-64
2024/03/13 04:09:36;;;;;;;128.40;122.03;;;;;;;;;;5113554;27;20047;-64
2024/03/13 04:12:02;;;;;;;121.82;115.65;;;;;;;;;;5115945;27;20047;-64
2024/03/13 04:14:28;;;;;;;119.82;113.82;;;;;;;;;;5099231;27;20036;-64
2024/03/13 04:16:54;;;;;;;122.95;116.82;;;;;;;;;;5116565;27;20129;-64
2024/03/13 04:19:21;;;;;;;128.82;122.43;;;;;;;;;;5115486;27;20112;-64
2024/03/13 04:21:47;;;;;;;127.60;121.20;;;;;;;;;;5114471;27;20035;-64
2024/03/13 04:24:13;;;;;;;130.10;123.63;;;;;;;;;;5112320;27;20031;-65
2024/03/13 04:26:39;;;;;;;131.82;125.28;;;;;;;;;;5088528;27;20500;-64
2024/03/13 04:29:05;;;;;;;119.65;113.65;;;;;;;;;;5111800;27;20035;-65
2024/03/13 04:31:30;;;;;;;124.22;118.03;;;;;;;;;;5118255;27;20030;-65
2024/03/13 04:33:56;;;;;;;117.35;111.35;;;;;;;;;;5117021;27;20364;-65
2024/03/13 04:36:21;;;;;;;126.00;119.72;;;;;;;;;;5112841;27;20031;-65
2024/03/13 04:38:50;;;;;;;126.55;120.30;;;;;;;;;;5116567;27;20035;-64
2024/03/13 04:41:18;;;;;;;123.22;115.20;;;;;;;;;;5115350;27;20027;-65
2024/03/13 04:43:44;;;;;;;113.65;108.00;;;;;;;;;;5111741;27;20039;-65
2024/03/13 04:46:18;;;;;;;116.47;110.70;;;;;;;;;;5115844;27;20548;-64
2024/03/13 04:48:45;;;;;;;118.22;112.18;;;;;;;;;;5113635;27;20707;-64
2024/03/13 04:51:11;;;;;;;120.20;114.20;;;;;;;;;;5115994;27;20047;-64
2024/03/13 04:53:37;;;;;;;122.45;116.32;;;;;;;;;;5110086;27;20034;-64
2024/03/13 04:56:03;;;;;;;125.57;119.35;;;;;;;;;;5114955;27;20023;-64
2024/03/13 04:58:29;;;;;;;126.20;119.95;;;;;;;;;;5115528;27;20047;-64
2024/03/13 05:00:55;;;;;;;127.00;120.65;;;;;;;;;;5114158;27;20051;-65
2024/03/13 05:03:20;;;;;;;122.45;116.28;;;;;;;;;;5115230;27;20068;-64
2024/03/13 05:05:46;;;;;;;115.78;110.03;;;;;;;;;;5098361;27;20031;-64
2024/03/13 05:08:11;;;;;;;116.20;110.20;;;;;;;;;;5112113;27;20032;-64
2024/03/13 05:10:37;;;;;;;121.38;115.38;;;;;;;;;;5111590;27;20035;-64
2024/03/13 05:13:02;;;;;;;116.20;110.40;;;;;;;;;;5093731;28;20117;-64
2024/03/13 05:15:28;;;;;;;106.18;100.88;;;;;;;;;;5110978;27;20050;-64
2024/03/13 05:17:55;;;;;;;118.03;112.07;;;;;;;;;;5111971;27;20024;-64
2024/03/13 05:20:22;;;;;;;113.72;107.97;;;;;;;;;;5090621;27;20027;-64
2024/03/13 05:22:47;;;;;;;118.43;112.40;;;;;;;;;;5112923;27;20046;-64
2024/03/13 05:25:19;;;;;;;110.57;105.07;;;;;;;;;;5112565;27;20385;-64
2024/03/13 05:27:46;;;;;;;87.32;82.93;;;;;;;;;;5110702;27;20051;-64
2024/03/13 05:30:12;;;;;;;107.38;101.90;;;;;;;;;;5113364;27;20046;-64
2024/03/13 05:32:37;;;;;;;103.57;98.30;;;;;;;;;;5112233;27;20032;-64
2024/03/13 05:35:06;;;;;;;106.90;101.57;;;;;;;;;;5113165;27;20508;-64
2024/03/13 05:37:32;;;;;;;109.82;104.32;;;;;;;;;;5111222;27;20436;-63
2024/03/13 05:40:01;;;;;;;107.65;102.20;;;;;;;;;;5097073;27;20040;-64
2024/03/13 05:42:27;;;;;;;112.63;107.00;;;;;;;;;;5096653;27;20027;-64
2024/03/13 05:44:52;;;;;;;111.93;106.32;;;;;;;;;;5116589;27;20480;-64
2024/03/13 05:47:17;;;;;;;105.68;100.43;;;;;;;;;;5115726;27;20031;-64
2024/03/13 05:49:44;;;;;;;108.82;103.40;;;;;;;;;;5113455;27;20088;-63
2024/03/13 05:52:10;;;;;;;111.20;105.53;;;;;;;;;;5116441;27;20040;-64
2024/03/13 05:54:35;;;;;;;102.68;97.55;;;;;;;;;;5111482;27;20050;-64
2024/03/13 05:57:00;;;;;;;101.25;96.25;;;;;;;;;;5111960;27;20031;-64
2024/03/13 05:59:26;;;;;;;112.20;106.63;;;;;;;;;;5112799;27;20053;-63
2024/03/13 06:01:51;;;;;;;103.18;97.70;;;;;;;;;;5111622;27;20028;-63
2024/03/13 06:04:20;;;;;;;115.60;109.85;;;;;;;;;;5114443;27;20050;-63
2024/03/13 06:06:45;;;;;;;109.32;103.85;;;;;;;;;;5111105;27;20046;-61
2024/03/13 06:09:11;;;;;;;111.32;105.72;;;;;;;;;;5112637;27;20035;-61
2024/03/13 06:11:36;;;;;;;127.97;121.55;;;;;;;;;;5113684;27;20036;-61
2024/03/13 06:14:02;;;;;;;122.45;116.40;;;;;;;;;;5093298;27;20035;-64
2024/03/13 06:16:27;;;;;;;114.05;107.65;;;;;;;;;;5114322;27;20056;-63
2024/03/13 06:18:54;;;;;;;111.40;105.78;;;;;;;;;;5111545;27;20115;-61
2024/03/13 06:21:20;;;;;;;108.07;102.72;;;;;;;;;;5111392;27;20802;-61
2024/03/13 06:23:52;;;;;;;104.10;98.88;;;;;;;;;;5116045;27;20038;-63
2024/03/13 06:26:17;;;;;;;110.18;104.70;;;;;;;;;;5112018;27;20094;-61
2024/03/13 06:31:28;;;;;;;99.72;94.70;;;;;;;;;;5113046;27;20119;-60
2024/03/13 06:33:53;;;;;;;104.95;99.72;;;;;;;;;;5111060;27;20027;-61
2024/03/13 06:36:19;;;;;;;97.38;92.53;;;;;;;;;;5116355;27;20126;-60
2024/03/13 06:38:46;;;;;;;99.97;95.00;;;;;;;;;;5112190;27;20461;-61
2024/03/13 06:41:12;;;;;;;103.55;98.20;;;;;;;;;;5116303;28;20041;-62
2024/03/13 06:43:37;;;;;;;105.20;99.95;;;;;;;;;;5116312;28;20028;-60
2024/03/13 06:46:03;;;;;;;108.25;102.88;;;;;;;;;;5112788;28;20039;-61
2024/03/13 06:48:28;;;;;;;117.93;111.97;;;;;;;;;;5113651;28;20058;-61
2024/03/13 06:50:54;;;;;;;120.50;114.53;;;;;;;;;;5113322;28;20614;-61
2024/03/13 06:53:19;;;;;;;115.68;109.97;;;;;;;;;;5114619;28;20039;-61
2024/03/13 06:55:45;;;;;;;117.60;111.75;;;;;;;;;;5112093;28;20043;-61
2024/03/13 06:58:11;;;;;;;105.40;100.03;;;;;;;;;;5113675;28;20459;-61
2024/03/13 07:00:36;;;;;;;105.57;100.35;;;;;;;;;;5094100;28;20020;-65
2024/03/13 07:03:02;;;;;;;106.22;100.93;;;;;;;;;;5113149;28;20046;-61
2024/03/13 07:05:28;;;;;;;95.00;90.28;;;;;;;;;;5113515;28;20135;-65
2024/03/13 07:07:56;;;;;;;96.82;92.05;;;;;;;;;;5111565;28;20182;-65
2024/03/13 07:10:22;;;;;;;98.07;93.15;;;;;;;;;;5112241;28;20074;-66
2024/03/13 07:12:48;;;;;;;104.25;99.07;;;;;;;;;;5112306;28;20118;-65
2024/03/13 07:15:13;;;;;;;104.20;98.97;;;;;;;;;;5112305;28;20137;-65
2024/03/13 07:17:39;;;;;;;107.20;101.85;;;;;;;;;;5111660;28;20031;-65
2024/03/13 07:20:09;;;;;;;102.93;97.80;;;;;;;;;;5113110;28;20792;-65
2024/03/13 07:22:35;;;;;;;101.63;96.17;;;;;;;;;;5112796;28;20102;-65
2024/03/13 07:25:02;;;;;;;107.65;101.95;;;;;;;;;;5113089;28;20035;-65
2024/03/13 07:27:27;;;;;;;101.45;96.43;;;;;;;;;;5113710;28;20036;-61
2024/03/13 07:29:53;;;;;;;103.18;97.90;;;;;;;;;;5111816;28;20050;-61
2024/03/13 07:32:19;;;;;;;111.30;105.78;;;;;;;;;;5109931;28;20046;-60
2024/03/13 07:34:45;;;;;;;112.18;106.57;;;;;;;;;;5110109;28;20030;-61
2024/03/13 07:37:11;;;;;;;124.82;118.57;;;;;;;;;;5109981;27;20040;-64
2024/03/13 07:39:36;;;;;;;111.90;106.32;;;;;;;;;;5114096;27;20031;-64
2024/03/13 07:42:02;;;;;;;112.82;107.00;;;;;;;;;;5114496;27;20031;-64
2024/03/13 07:44:28;;;;;;;115.53;109.72;;;;;;;;;;5116938;27;20168;-60
2024/03/13 07:46:53;;;;;;;124.25;118.05;;;;;;;;;;5097641;27;20045;-60
2024/03/13 07:49:19;;;;;;;113.90;108.13;;;;;;;;;;5114435;27;20131;-60
2024/03/13 07:51:45;;;;;;;121.90;115.85;;;;;;;;;;5117438;27;20482;-60
2024/03/13 07:54:10;;;;;;;120.07;114.07;;;;;;;;;;5096176;27;20035;-61
2024/03/13 07:56:37;;;;;;;121.88;115.72;;;;;;;;;;5116031;27;20578;-65
2024/03/13 07:59:06;;;;;;;122.72;116.55;;;;;;;;;;5098998;27;20066;-61
2024/03/13 08:01:38;;;;;;;127.50;121.05;;;;;;;;;;5118261;27;20031;-64
2024/03/13 08:04:04;;;;;;;126.03;119.68;;;;;;;;;;5115344;27;20463;-60
2024/03/13 08:06:29;;;;;;;124.68;118.43;;;;;;;;;;5118204;27;20080;-61
2024/03/13 08:08:54;;;;;;;124.15;117.93;;;;;;;;;;5113672;27;20062;-65
2024/03/13 08:11:20;;;;;;;118.75;112.82;;;;;;;;;;5113265;27;20031;-65
2024/03/13 08:13:45;;;;;;;129.82;123.30;;;;;;;;;;5113242;27;20740;-65
2024/03/13 08:16:11;;;;;;;132.30;125.72;;;;;;;;;;5113771;27;20042;-63
2024/03/13 08:18:38;;;;;;;123.43;117.22;;;;;;;;;;5114038;27;20191;-64
2024/03/13 08:21:03;;;;;;;120.53;114.38;;;;;;;;;;5112782;27;20063;-65
2024/03/13 08:23:29;;;;;;;126.60;120.15;;;;;;;;;;5111406;27;20143;-65
2024/03/13 08:25:54;;;;;;;123.40;117.22;;;;;;;;;;5113161;27;20093;-65
2024/03/13 08:28:20;;;;;;;123.55;117.22;;;;;;;;;;5116579;27;20034;-62
2024/03/13 08:30:46;;;;;;;128.90;122.45;;;;;;;;;;5096253;27;20111;-64
2024/03/13 08:33:15;;;;;;;129.70;123.22;;;;;;;;;;5114457;27;21158;-64
2024/03/13 08:35:41;;;;;;;126.50;120.00;;;;;;;;;;5115747;27;20121;-64
2024/03/13 08:38:08;;;;;;;126.93;120.57;;;;;;;;;;5112872;27;20073;-64
2024/03/13 08:40:34;;;;;;;125.78;119.43;;;;;;;;;;5113744;27;20037;-64
2024/03/13 08:42:59;;;;;;;124.25;117.97;;;;;;;;;;5115301;27;20410;-64
2024/03/13 08:45:28;;;;;;;127.97;121.40;;;;;;;;;;5114384;27;20023;-64
2024/03/13 08:47:53;;;;;;;125.13;118.80;;;;;;;;;;5114297;27;20024;-60
2024/03/13 08:50:19;;;;;;;123.82;117.60;;;;;;;;;;5114247;27;20038;-60
2024/03/13 08:52:45;;;;;;;128.07;121.63;;;;;;;;;;5115912;27;20529;-65
2024/03/13 08:55:10;;;;;;;126.10;119.65;;;;;;;;;;5114433;27;20023;-64
2024/03/13 08:57:36;;;;;;;121.82;115.60;;;;;;;;;;5113000;27;20036;-65
2024/03/13 09:00:03;;;;;;;124.88;118.55;;;;;;;;;;5112175;27;20047;-65
2024/03/13 09:02:29;;;;;;;119.57;113.63;;;;;;;;;;5109921;27;20047;-65
2024/03/13 09:04:54;;;;;;;131.25;124.53;;;;;;;;;;5116588;27;20456;-65
2024/03/13 09:07:20;;;;;;;131.20;124.60;;;;;;;;;;5113257;27;20107;-65
2024/03/13 09:09:46;;;;;;;129.95;123.45;;;;;;;;;;5116244;27;21119;-62
2024/03/13 09:12:13;;;;;;;137.25;130.23;;;;;;;;;;5114484;27;20039;-62
2024/03/13 09:14:39;;;;;;;134.40;127.60;;;;;;;;;;5116614;27;20039;-63
2024/03/13 09:17:09;;;;;;;124.80;118.28;;;;;;;;;;5111212;27;20030;-64
2024/03/13 09:19:37;;;;;;;117.40;111.35;;;;;;;;;;5115705;27;20403;-64
2024/03/13 09:22:07;;;;;;;131.20;124.55;;;;;;;;;;5114376;27;20035;-64
2024/03/13 09:24:33;;;;;;;130.15;123.57;;;;;;;;;;5114679;27;20376;-64
2024/03/13 09:26:58;;;;;;;135.27;128.48;;;;;;;;;;5114942;27;20091;-64
2024/03/13 09:29:24;;;;;;;136.02;129.05;;;;;;;;;;5114755;27;20035;-64
2024/03/13 09:31:50;;;;;;;130.32;123.80;;;;;;;;;;5113701;27;20716;-63
2024/03/13 09:34:16;;;;;;;134.25;127.50;;;;;;;;;;5095516;27;20038;-63
2024/03/13 09:36:41;;;;;;;134.85;128.02;;;;;;;;;;5115001;27;20574;-63
2024/03/13 09:39:06;;;;;;;132.43;125.85;;;;;;;;;;5113967;27;20027;-63
2024/03/13 09:41:32;;;;;;;128.75;122.30;;;;;;;;;;5112292;27;20518;-62
2024/03/13 09:43:59;;;;;;;138.18;131.25;;;;;;;;;;5115779;27;20027;-62
2024/03/13 09:46:27;;;;;;;139.02;132.10;;;;;;;;;;5097133;27;20051;-63
2024/03/13 09:48:54;;;;;;;141.25;134.18;;;;;;;;;;5114722;27;20082;-63
2024/03/13 09:51:22;;;;;;;146.52;139.18;;;;;;;;;;5115127;27;20059;-63
2024/03/13 09:53:49;;;;;;;149.38;141.85;;;;;;;;;;5114962;27;20078;-63
2024/03/13 09:56:17;;;;;;;144.63;137.40;;;;;;;;;;5112396;27;20036;-62
2024/03/13 09:58:45;;;;;;;146.55;139.13;;;;;;;;;;5096972;27;20038;-62
2024/03/13 10:01:19;;;;;;;136.52;129.68;;;;;;;;;;5112049;27;20114;-64
2024/03/13 10:03:53;;;;;;;140.35;133.32;;;;;;;;;;5115231;27;20071;-63
2024/03/13 10:06:24;;;;;;;141.57;134.20;;;;;;;;;;5115280;27;20027;-63
2024/03/13 10:08:51;;;;;;;151.18;143.65;;;;;;;;;;5114206;27;20107;-63
2024/03/13 10:11:17;;;;;;;151.82;144.20;;;;;;;;;;5119262;27;20586;-64
2024/03/13 10:13:44;;;;;;;155.10;147.30;;;;;;;;;;5114070;27;20035;-63
2024/03/13 10:16:10;;;;;;;146.00;138.68;;;;;;;;;;5115520;27;20031;-62
2024/03/13 10:18:47;;;;;;;149.70;142.23;;;;;;;;;;5115441;27;20034;-62
2024/03/13 10:21:25;;;;;;;144.77;137.52;;;;;;;;;;5115603;27;20695;-64
2024/03/13 10:23:52;;;;;;;138.27;131.40;;;;;;;;;;5112411;27;20035;-64
2024/03/13 10:26:20;;;;;;;151.63;144.10;;;;;;;;;;5114131;27;20043;-63
2024/03/13 10:28:47;;;;;;;156.95;149.02;;;;;;;;;;5114256;27;20034;-63
2024/03/13 10:31:15;;;;;;;155.00;147.23;;;;;;;;;;5112025;27;20027;-64
2024/03/13 10:33:41;;;;;;;158.80;150.73;;;;;;;;;;5111836;27;20069;-64
2024/03/13 10:36:07;;;;;;;157.75;149.85;;;;;;;;;;5111987;28;20039;-64
2024/03/13 10:38:35;;;;;;;174.38;165.70;;;;;;;;;;5113020;27;20042;-63
2024/03/13 10:41:04;;;;;;;167.40;158.95;;;;;;;;;;5112569;28;20042;-62
2024/03/13 10:43:33;;;;;;;173.68;164.93;;;;;;;;;;5110193;28;20059;-63
2024/03/13 10:45:58;;;;;;;167.02;158.52;;;;;;;;;;5110925;28;20077;-64
2024/03/13 10:48:24;;;;;;;185.98;176.75;;;;;;;;;;5114766;28;20083;-64
2024/03/13 10:50:56;;;;;;;186.38;177.02;;;;;;;;;;5111868;28;20541;-64
2024/03/13 10:53:22;;;;;;;192.25;182.70;;;;;;;;;;5114024;28;20035;-62
2024/03/13 10:55:47;;;;;;;205.43;195.02;;;;;;;;;;5114363;28;20031;-64
2024/03/13 10:58:20;;;;;;;199.23;189.38;;;;;;;;;;5114371;28;20024;-63
2024/03/13 11:00:49;;;;;;;190.10;180.70;;;;;;;;;;5094808;28;20434;-63
2024/03/13 11:03:15;;;;;;;199.13;189.05;;;;;;;;;;5108645;28;20035;-64
2024/03/13 11:05:41;;;;;;;207.40;197.15;;;;;;;;;;5114970;28;20102;-63
2024/03/13 11:08:07;;;;;;;196.00;186.07;;;;;;;;;;5116075;28;20057;-63
2024/03/13 11:10:34;;;;;;;197.75;187.70;;;;;;;;;;5113439;27;20082;-64
2024/03/13 11:13:04;;;;;;;210.85;200.32;;;;;;;;;;5114423;27;20141;-63
2024/03/13 11:15:34;;;;;;;200.20;189.90;;;;;;;;;;5117132;27;20524;-64
2024/03/13 11:18:01;;;;;;;202.82;192.73;;;;;;;;;;5115349;27;20039;-63
2024/03/13 11:20:33;;;;;;;214.45;203.77;;;;;;;;;;5116326;27;20611;-63
2024/03/13 11:23:17;;;;;;;199.07;189.13;;;;;;;;;;5117720;27;20085;-63
2024/03/13 11:25:47;;;;;;;202.82;192.75;;;;;;;;;;5115150;27;20110;-63
2024/03/13 11:28:29;;;;;;;202.13;192.07;;;;;;;;;;5116926;27;20099;-63
2024/03/13 11:30:57;;;;;;;191.00;181.32;;;;;;;;;;5116551;27;20389;-63
2024/03/13 11:33:24;;;;;;;207.43;197.13;;;;;;;;;;5114223;27;20115;-64
2024/03/13 11:35:50;;;;;;;204.40;194.20;;;;;;;;;;5116602;27;20031;-64
2024/03/13 11:38:17;;;;;;;221.43;210.40;;;;;;;;;;5115630;27;20035;-62
2024/03/13 11:40:42;;;;;;;230.25;218.38;;;;;;;;;;5115407;27;20059;-63
2024/03/13 11:43:09;;;;;;;218.88;207.93;;;;;;;;;;5116923;27;20115;-63
2024/03/13 11:45:44;;;;;;;216.45;205.63;;;;;;;;;;5099301;28;20028;-63
2024/03/13 11:48:15;;;;;;;197.95;188.15;;;;;;;;;;5113623;27;20035;-63
2024/03/13 11:51:00;;;;;;;191.05;181.57;;;;;;;;;;5115339;27;20118;-62
2024/03/13 11:53:31;;;;;;;206.50;196.18;;;;;;;;;;5115161;27;20036;-63
2024/03/13 11:55:59;;;;;;;191.10;181.48;;;;;;;;;;5115927;27;20027;-62
2024/03/13 11:58:28;;;;;;;183.00;173.68;;;;;;;;;;5116248;27;20044;-62
2024/03/13 12:00:56;;;;;;;201.20;191.27;;;;;;;;;;5117936;27;20345;-63
2024/03/13 12:03:28;;;;;;;187.15;177.85;;;;;;;;;;5112524;27;20030;-63
2024/03/13 12:05:54;;;;;;;184.18;174.60;;;;;;;;;;5118340;27;20453;-62
2024/03/13 12:08:19;;;;;;;185.75;176.48;;;;;;;;;;5113656;27;20038;-64
2024/03/13 12:10:48;;;;;;;183.43;174.35;;;;;;;;;;5114293;27;20031;-63
2024/03/13 12:13:17;;;;;;;185.63;176.18;;;;;;;;;;5114714;27;20035;-63
2024/03/13 12:15:44;;;;;;;170.93;162.18;;;;;;;;;;5116669;27;20036;-63
2024/03/13 12:18:14;;;;;;;166.07;157.77;;;;;;;;;;5113466;27;20109;-63
2024/03/13 12:20:43;;;;;;;166.63;158.23;;;;;;;;;;5113026;27;20479;-63
2024/03/13 12:23:13;;;;;;;155.18;147.43;;;;;;;;;;5112588;27;20074;-63
2024/03/13 12:25:39;;;;;;;157.32;149.05;;;;;;;;;;5117055;27;20036;-63
2024/03/13 12:28:20;;;;;;;162.60;154.43;;;;;;;;;;5113974;27;20035;-63
2024/03/13 12:30:48;;;;;;;174.27;165.60;;;;;;;;;;5115855;27;20624;-63
2024/03/13 12:33:14;;;;;;;173.68;165.00;;;;;;;;;;5095275;27;20073;-63
2024/03/13 12:35:40;;;;;;;180.93;171.93;;;;;;;;;;5115552;27;20031;-64
2024/03/13 12:38:05;;;;;;;194.35;184.70;;;;;;;;;;5113849;27;20036;-63
2024/03/13 12:40:33;;;;;;;197.82;188.00;;;;;;;;;;5113599;27;20122;-62
2024/03/13 12:43:00;;;;;;;180.13;171.18;;;;;;;;;;5114883;27;20110;-63
2024/03/13 12:45:26;;;;;;;186.32;177.02;;;;;;;;;;5116432;27;20111;-64
2024/03/13 12:47:52;;;;;;;190.52;180.98;;;;;;;;;;5116205;27;20861;-63
2024/03/13 12:50:18;;;;;;;190.93;181.32;;;;;;;;;;5114687;27;20039;-62
2024/03/13 12:52:46;;;;;;;178.30;169.27;;;;;;;;;;5116127;27;20033;-64
2024/03/13 12:55:16;;;;;;;164.00;155.77;;;;;;;;;;5117285;27;20035;-63
2024/03/13 12:57:41;;;;;;;168.65;160.13;;;;;;;;;;5116146;27;20479;-63
2024/03/13 13:00:18;;;;;;;172.05;163.45;;;;;;;;;;5116091;27;20071;-63
2024/03/13 13:02:53;;;;;;;147.15;139.75;;;;;;;;;;5114344;27;20039;-63
2024/03/13 13:05:19;;;;;;;160.85;152.77;;;;;;;;;;5114298;27;20027;-63
2024/03/13 13:07:52;;;;;;;167.52;159.10;;;;;;;;;;5111683;27;20126;-63
2024/03/13 13:10:22;;;;;;;156.60;148.70;;;;;;;;;;5115201;27;20024;-63
2024/03/13 13:12:48;;;;;;;170.80;162.20;;;;;;;;;;5115267;27;20028;-63
2024/03/13 13:15:15;;;;;;;183.13;173.85;;;;;;;;;;5116431;27;20265;-63
2024/03/13 13:17:40;;;;;;;187.98;178.50;;;;;;;;;;5113068;27;20074;-63
2024/03/13 13:20:11;;;;;;;193.13;183.35;;;;;;;;;;5116004;27;20452;-63
2024/03/13 13:22:41;;;;;;;199.02;189.00;;;;;;;;;;5114779;27;20111;-63
2024/03/13 13:25:20;;;;;;;210.20;199.73;;;;;;;;;;5113421;27;20376;-63
2024/03/13 13:27:47;;;;;;;200.13;190.07;;;;;;;;;;5116266;27;20066;-63
2024/03/13 13:30:14;;;;;;;208.73;198.43;;;;;;;;;;5116525;27;20096;-64
2024/03/13 13:32:43;;;;;;;210.10;199.48;;;;;;;;;;5112628;27;20471;-63
2024/03/13 13:35:14;;;;;;;208.65;198.25;;;;;;;;;;5114662;27;20027;-63
2024/03/13 13:37:42;;;;;;;200.35;190.23;;;;;;;;;;5114629;27;20042;-63
2024/03/13 13:40:15;;;;;;;194.73;185.02;;;;;;;;;;5114408;27;20035;-62
2024/03/13 13:42:45;;;;;;;194.93;185.23;;;;;;;;;;5115678;27;20046;-64
2024/03/13 13:45:11;;;;;;;197.20;187.35;;;;;;;;;;5113448;27;20038;-63
2024/03/13 13:47:39;;;;;;;204.55;194.32;;;;;;;;;;5111997;27;20479;-63
2024/03/13 13:50:10;;;;;;;194.70;184.88;;;;;;;;;;5115194;27;20056;-64
2024/03/13 13:52:39;;;;;;;185.05;175.50;;;;;;;;;;5110676;27;20108;-64
2024/03/13 13:55:05;;;;;;;195.10;185.38;;;;;;;;;;5107162;27;20352;-64
2024/03/13 13:57:32;;;;;;;203.45;193.32;;;;;;;;;;5112018;27;20047;-64
2024/03/13 13:59:57;;;;;;;211.50;200.85;;;;;;;;;;5113983;27;20055;-64
2024/03/13 14:02:23;;;;;;;214.27;203.57;;;;;;;;;;5105230;27;20059;-63
2024/03/13 14:04:48;;;;;;;225.32;214.02;;;;;;;;;;5101811;27;20034;-61
2024/03/13 14:07:14;;;;;;;216.45;205.55;;;;;;;;;;5113040;27;20108;-63
2024/03/13 14:09:39;;;;;;;223.13;211.90;;;;;;;;;;5113492;27;20740;-63
2024/03/13 14:12:07;;;;;;;206.73;196.45;;;;;;;;;;5112877;27;20039;-62
2024/03/13 14:14:34;;;;;;;204.35;194.02;;;;;;;;;;5113658;27;20060;-62